This is the latest recevied weather packets stored in our database for station/object OE-11190. If no packets are shown the sender has not sent any weather packets the latest 10 day(s).
| Time | Temp. | Humidity | Pressure | Rain* | Wind** | Luminosity | Snow |
|---|---|---|---|---|---|---|---|
| 1788218708 | 16.67° C | 90% | 1019 hPa | 4.83 mm | - | 0 W/m² | - |
| 1788218108 | 16.67° C | 92% | 1018.8 hPa | 5.33 mm | - | 0 W/m² | - |
| 1788217508 | 17.22° C | 86% | 1019.3 hPa | 5.08 mm | - | 0 W/m² | - |
| 1788216908 | 17.22° C | 85% | 1019.6 hPa | 5.08 mm | - | 0 W/m² | - |
| 1788216308 | 17.78° C | 85% | 1019.8 hPa | 5.33 mm | - | 0 W/m² | - |
| 1788215707 | 17.78° C | 91% | 1020.3 hPa | 5.59 mm | - | 0 W/m² | - |
| 1788215108 | 18.33° C | 91% | 1020.2 hPa | 4.32 mm | - | 0 W/m² | - |
| 1788214508 | 18.33° C | 90% | 1019.8 hPa | 3.81 mm | - | 0 W/m² | - |
| 1788213907 | 18.33° C | 90% | 1019.5 hPa | 3.81 mm | - | 0 W/m² | - |
| 1788213308 | 18.89° C | 91% | 1019.1 hPa | 4.06 mm | - | 0 W/m² | - |
| 1788212708 | 18.89° C | 89% | 1019.5 hPa | 3.81 mm | - | 0 W/m² | - |
| 1788212108 | 19.44° C | 87% | 1019.8 hPa | 3.05 mm | - | 0 W/m² | - |
| 1788211508 | 20° C | 77% | 1019.6 hPa | 2.03 mm | - | 0 W/m² | - |
| 1788210907 | 20.56° C | 76% | 1019.4 hPa | 1.78 mm | - | 0 W/m² | - |
| 1788210307 | 20.56° C | 80% | 1018.6 hPa | 1.52 mm | - | 0 W/m² | - |
| 1788209708 | 22.22° C | 65% | 1017.5 hPa | 0.51 mm | - | 0 W/m² | - |
| 1788209107 | 23.89° C | 54% | 1017.2 hPa | 0 mm | - | 0 W/m² | - |
| 1788208523 | 23.89° C | 53% | 1016.7 hPa | 0 mm | - | 0 W/m² | - |
| 1788207908 | 23.89° C | 56% | 1016.4 hPa | 0 mm | - | 0 W/m² | - |
| 1788207308 | 23.89° C | 59% | 1016.1 hPa | 0 mm | - | 0 W/m² | - |
| 1788206708 | 24.44° C | 54% | 1015.9 hPa | 0 mm | - | 0 W/m² | - |
| 1788206108 | 25.56° C | 46% | 1015.5 hPa | 0 mm | - | 0 W/m² | - |
| 1788205508 | 25.56° C | 42% | 1015.2 hPa | 0 mm | - | 0 W/m² | - |
| 1788204908 | 26.11° C | 41% | 1014.8 hPa | 0 mm | - | 0 W/m² | - |
| 1788204307 | 26.11° C | 40% | 1014.4 hPa | 0 mm | - | 0 W/m² | - |
* Rain latest hour (hover to see other rain measurements)
** Current wind speed in m/s (hover to see current wind gust speed)